SFQ weather

Şanlıurfa Airport
Şanlıurfa, Şanlıurfa Province, Turkey

Public forecast

Using degrees Celsius for public forecast. Weather courtesy of forecast.io.

Closest aviation weather report (METAR) to Şanlıurfa Airport

Closest report is Şanlıurfa GAP Airport, 21.2 nm (39.3 km) N. Retrieved 2020/01/19 18:20 UTC (0 seconds ago):

LTCS 191820Z 04013KT 5000 -RA BR OVC002 04/04 Q1019 RMK RWY22 06011KT

Closest aviation forecast (TAF) to Şanlıurfa Airport

Closest forecast is Şanlıurfa GAP Airport, 21.2 nm (39.3 km) N. Retrieved 2020/01/19 18:00 UTC (10 minutes ago):

TAF LTCS 191640Z 1918/2018 12012KT 4000 RA BR BKN003 BKN020 TEMPO 1918/1922 12015G25KT 1200 RA TEMPO 1923/2002 12015G25KT 2000 TEMPO 2002/2006 0500 FG VV002 BECMG 2006/2009 7000 SCT012 BKN025 BECMG 2013/2015 36007KT